createdAt,value
2019-05-30T00:00:06.702Z,97118.30
2019-05-30T00:02:23.294Z,97122.46
2019-05-30T00:04:51.834Z,97125.56
2019-05-30T00:07:20.424Z,97119.56
2019-05-30T00:09:48.936Z,97120.91
2019-05-30T00:12:17.461Z,97121.63
2019-05-30T00:14:46.427Z,97114.45
2019-05-30T00:17:14.872Z,97115.00
2019-05-30T00:19:43.381Z,97115.52
2019-05-30T00:22:11.880Z,97118.62
2019-05-30T00:24:40.781Z,97112.79
2019-05-30T00:27:09.300Z,97122.55
2019-05-30T00:29:37.797Z,97117.67
2019-05-30T00:32:06.333Z,97117.27
2019-05-30T00:34:34.845Z,97114.25
2019-05-30T00:37:04.102Z,97115.48
2019-05-30T00:39:32.732Z,97120.36
2019-05-30T00:42:02.078Z,97121.19
2019-05-30T00:44:30.588Z,97118.89
2019-05-30T00:47:00.496Z,97122.22
2019-05-30T00:49:29.079Z,97123.45
2019-05-30T00:51:58.348Z,97118.89
2019-05-30T00:54:26.847Z,97123.56
2019-05-30T00:56:56.508Z,97123.88
2019-05-30T00:59:25.079Z,97123.77
2019-05-30T01:01:53.636Z,97123.36
2019-05-30T01:04:22.207Z,97120.95
2019-05-30T01:06:50.710Z,97122.92
2019-05-30T01:09:19.212Z,97113.05
2019-05-30T01:11:47.725Z,97116.38
2019-05-30T01:14:16.222Z,97111.63
2019-05-30T01:16:44.808Z,97116.14
2019-05-30T01:19:13.295Z,97113.67
2019-05-30T01:21:41.935Z,97103.17
2019-05-30T01:24:10.462Z,97106.17
2019-05-30T01:26:38.953Z,97108.94
2019-05-30T01:29:07.815Z,97107.19
2019-05-30T01:31:36.364Z,97102.39
2019-05-30T01:34:05.882Z,97103.45
2019-05-30T01:36:34.412Z,97106.14
2019-05-30T01:39:03.833Z,97107.05
2019-05-30T01:41:32.351Z,97103.52
2019-05-30T01:44:01.920Z,97099.73
2019-05-30T01:46:30.467Z,97099.45
2019-05-30T01:49:00.162Z,97099.13
2019-05-30T01:51:28.814Z,97099.73
2019-05-30T01:53:58.342Z,97099.45
2019-05-30T01:56:26.849Z,97099.45
2019-05-30T01:58:55.385Z,97098.48
2019-05-30T02:01:25.405Z,97094.45
2019-05-30T02:03:54.267Z,97104.27
2019-05-30T02:06:22.812Z,97104.56
2019-05-30T02:08:51.348Z,97098.86
2019-05-30T02:11:19.816Z,97108.41
2019-05-30T02:13:48.322Z,97107.25
2019-05-30T02:16:16.883Z,97103.00
2019-05-30T02:18:45.388Z,97108.97
2019-05-30T02:21:13.900Z,97108.33
2019-05-30T02:23:42.393Z,97104.61
2019-05-30T02:26:10.896Z,97099.70
2019-05-30T02:28:39.375Z,97103.53
2019-05-30T02:31:09.650Z,97099.05
2019-05-30T02:33:38.082Z,97109.27
2019-05-30T02:36:08.493Z,97115.54
2019-05-30T02:38:36.798Z,97115.83
2019-05-30T02:41:06.203Z,97113.62
2019-05-30T02:43:35.554Z,97117.30
2019-05-30T02:46:05.929Z,97109.23
2019-05-30T02:48:34.575Z,97105.38
2019-05-30T02:51:03.419Z,97110.77
2019-05-30T02:53:31.972Z,97115.59
2019-05-30T02:56:01.412Z,97116.20
2019-05-30T02:58:29.952Z,97112.48
2019-05-30T03:00:58.476Z,97116.42
2019-05-30T03:03:26.992Z,97118.20
2019-05-30T03:05:55.789Z,97120.86
2019-05-30T03:08:24.548Z,97119.19
2019-05-30T03:10:53.182Z,97116.91
2019-05-30T03:13:22.168Z,97118.31
2019-05-30T03:15:51.092Z,97125.45
2019-05-30T03:18:19.715Z,97121.59
2019-05-30T03:20:48.660Z,97121.79
2019-05-30T03:23:17.213Z,97123.27
2019-05-30T03:25:45.870Z,97122.76
2019-05-30T03:28:14.421Z,97125.31
2019-05-30T03:30:45.160Z,97122.63
2019-05-30T03:33:32.324Z,97126.14
2019-05-30T03:35:44.765Z,97129.91
2019-05-30T03:38:15.482Z,97130.50
2019-05-30T03:40:43.823Z,97128.70
2019-05-30T03:43:13.820Z,97133.14
2019-05-30T03:45:44.492Z,97136.86
2019-05-30T03:48:16.218Z,97135.10
2019-05-30T03:50:48.112Z,97137.04
2019-05-30T03:53:16.843Z,97136.02
2019-05-30T03:55:48.383Z,97129.86
2019-05-30T03:58:44.350Z,97137.55
2019-05-30T04:01:15.871Z,97144.27
2019-05-30T04:03:56.179Z,97153.81
2019-05-30T04:06:33.891Z,97150.48
2019-05-30T04:09:09.084Z,97155.72
2019-05-30T04:11:55.221Z,97154.33
2019-05-30T04:14:28.961Z,97157.45
2019-05-30T04:16:57.541Z,97156.19
2019-05-30T04:19:26.062Z,97160.83
2019-05-30T04:21:54.591Z,97164.17
2019-05-30T04:24:23.123Z,97164.95
2019-05-30T04:26:51.646Z,97164.95
2019-05-30T04:29:20.140Z,97163.70
2019-05-30T04:31:48.645Z,97165.78
2019-05-30T04:34:19.414Z,97167.42
2019-05-30T04:36:47.364Z,97175.20
2019-05-30T04:39:17.162Z,97173.90
2019-05-30T04:41:45.833Z,97178.63
2019-05-30T04:44:16.097Z,97175.38
2019-05-30T04:46:44.625Z,97181.91
2019-05-30T04:49:14.472Z,97184.78
2019-05-30T04:51:43.340Z,97179.54
2019-05-30T04:54:12.621Z,97186.91
2019-05-30T04:56:41.511Z,97187.34
2019-05-30T04:59:10.901Z,97180.25
2019-05-30T05:01:39.554Z,97191.19
2019-05-30T05:04:08.094Z,97185.48
2019-05-30T05:06:36.566Z,97185.77
2019-05-30T05:09:07.182Z,97189.06
2019-05-30T05:11:35.681Z,97181.13
2019-05-30T05:14:04.243Z,97180.11
2019-05-30T05:16:35.987Z,97177.28
2019-05-30T05:19:02.937Z,97184.02
2019-05-30T05:21:31.528Z,97179.33
2019-05-30T05:24:00.033Z,97189.20
2019-05-30T05:26:28.505Z,97191.88
2019-05-30T05:28:57.034Z,97191.83
2019-05-30T05:31:25.534Z,97192.27
2019-05-30T05:33:57.179Z,97191.70
2019-05-30T05:36:25.179Z,97195.66
2019-05-30T05:38:53.716Z,97194.95
2019-05-30T05:41:22.402Z,97194.91
2019-05-30T05:43:50.815Z,97198.20
2019-05-30T05:46:20.364Z,97204.88
2019-05-30T05:48:48.912Z,97197.97
2019-05-30T05:51:18.532Z,97196.22
2019-05-30T05:53:47.048Z,97203.77
2019-05-30T05:56:16.812Z,97195.84
2019-05-30T05:58:45.425Z,97204.05
2019-05-30T06:01:13.930Z,97204.69
2019-05-30T06:03:42.536Z,97211.92
2019-05-30T06:06:11.050Z,97206.92
2019-05-30T06:08:39.561Z,97210.63
2019-05-30T06:11:08.077Z,97215.18
2019-05-30T06:13:36.565Z,97210.13
2019-05-30T06:16:05.122Z,97212.44
2019-05-30T06:18:33.631Z,97220.29
2019-05-30T06:21:02.190Z,97225.11
2019-05-30T06:23:30.685Z,97231.75
2019-05-30T06:25:59.188Z,97233.41
2019-05-30T06:28:28.227Z,97235.73
2019-05-30T06:30:59.023Z,97239.42
2019-05-30T06:33:27.251Z,97239.52
2019-05-30T06:35:55.742Z,97251.39
2019-05-30T06:38:25.293Z,97248.05
2019-05-30T06:40:53.785Z,97250.09
2019-05-30T06:43:24.215Z,97249.96
2019-05-30T06:45:52.845Z,97251.85
2019-05-30T06:48:22.579Z,97255.48
2019-05-30T06:50:51.190Z,97252.09
2019-05-30T06:53:20.908Z,97251.16
2019-05-30T06:55:49.508Z,97250.27
2019-05-30T06:58:18.231Z,97257.14
2019-05-30T07:00:46.841Z,97252.08
2019-05-30T07:03:15.442Z,97251.98
2019-05-30T07:05:44.315Z,97255.78
2019-05-30T07:08:12.993Z,97256.33
2019-05-30T07:10:41.766Z,97261.62
2019-05-30T07:13:10.276Z,97259.75
2019-05-30T07:15:38.805Z,97256.10
2019-05-30T07:18:07.373Z,97255.10
2019-05-30T07:20:35.922Z,97249.61
2019-05-30T07:23:04.560Z,97251.02
2019-05-30T07:25:34.113Z,97257.23
2019-05-30T07:28:02.710Z,97252.09
2019-05-30T07:30:32.059Z,97254.33
2019-05-30T07:33:00.583Z,97246.48
2019-05-30T07:35:30.007Z,97251.02
2019-05-30T07:37:58.550Z,97252.77
2019-05-30T07:40:27.048Z,97252.66
2019-05-30T07:42:55.509Z,97249.52
2019-05-30T07:45:24.870Z,97248.53
2019-05-30T07:47:53.460Z,97252.98
2019-05-30T07:50:22.134Z,97246.16
2019-05-30T07:52:50.625Z,97248.28
2019-05-30T07:55:20.083Z,97246.62
2019-05-30T07:57:48.570Z,97243.73
2019-05-30T08:00:17.730Z,97237.18
2019-05-30T08:02:46.231Z,97240.45
2019-05-30T08:05:23.957Z,97239.15
2019-05-30T08:07:45.410Z,97235.16
2019-05-30T08:10:14.429Z,97239.21
2019-05-30T08:12:42.919Z,97235.94
2019-05-30T08:15:12.597Z,97237.23
2019-05-30T08:17:44.263Z,97232.55
2019-05-30T08:20:11.860Z,97230.42
2019-05-30T08:22:40.384Z,97232.39
2019-05-30T08:25:10.001Z,97227.02
2019-05-30T08:27:38.788Z,97224.42
2019-05-30T08:30:12.629Z,97228.25
2019-05-30T08:32:41.132Z,97224.82
2019-05-30T08:35:10.050Z,97219.63
2019-05-30T08:37:39.412Z,97221.88
2019-05-30T08:40:09.523Z,97214.30
2019-05-30T08:42:38.542Z,97216.67
2019-05-30T08:45:10.258Z,97214.23
2019-05-30T08:47:40.406Z,97214.69
2019-05-30T08:50:10.904Z,97217.05
2019-05-30T08:52:40.870Z,97215.22
2019-05-30T08:55:09.979Z,97211.55
2019-05-30T08:57:38.739Z,97208.69
2019-05-30T09:00:09.315Z,97210.45
2019-05-30T09:02:38.837Z,97212.97
2019-05-30T09:05:08.602Z,97205.42
2019-05-30T09:07:38.264Z,97201.84
2019-05-30T09:10:08.114Z,97200.96
2019-05-30T09:12:38.609Z,97197.61
2019-05-30T09:15:09.626Z,97193.52
2019-05-30T09:17:39.344Z,97184.09
2019-05-30T09:20:09.424Z,97183.02
2019-05-30T09:22:39.424Z,97192.32
2019-05-30T09:25:11.729Z,97181.94
2019-05-30T09:27:41.418Z,97186.66
2019-05-30T09:30:13.395Z,97179.91
2019-05-30T09:32:43.209Z,97184.33
2019-05-30T09:35:13.101Z,97178.66
2019-05-30T09:37:42.386Z,97184.92
2019-05-30T09:40:12.769Z,97181.94
2019-05-30T09:42:44.214Z,97173.65
2019-05-30T09:45:12.800Z,97175.27
2019-05-30T09:47:43.235Z,97174.28
2019-05-30T09:50:11.917Z,97173.00
2019-05-30T09:52:41.682Z,97166.20
2019-05-30T09:55:11.042Z,97171.54
2019-05-30T09:57:42.339Z,97159.41
2019-05-30T10:00:13.127Z,97165.05
2019-05-30T10:02:43.009Z,97162.78
2019-05-30T10:05:12.329Z,97155.94
2019-05-30T10:07:40.911Z,97162.64
2019-05-30T10:10:09.951Z,97162.69
2019-05-30T10:12:38.470Z,97150.80
2019-05-30T10:15:09.555Z,97155.83
2019-05-30T10:17:38.069Z,97161.94
2019-05-30T10:20:08.315Z,97155.36
2019-05-30T10:22:36.800Z,97152.30
2019-05-30T10:25:07.212Z,97148.45
2019-05-30T10:27:35.787Z,97155.90
2019-05-30T10:30:09.319Z,97156.00
2019-05-30T10:32:37.855Z,97153.36
2019-05-30T10:35:06.908Z,97148.84
2019-05-30T10:37:35.705Z,97149.13
2019-05-30T10:42:33.178Z,97145.94
2019-05-30T10:45:01.712Z,97142.66
2019-05-30T10:47:30.202Z,97142.17
2019-05-30T10:49:58.692Z,97140.66
2019-05-30T10:52:27.177Z,97141.22
2019-05-30T10:54:55.688Z,97143.45
2019-05-30T10:57:24.115Z,97140.83
2019-05-30T10:59:52.710Z,97134.53
2019-05-30T11:02:21.367Z,97138.73
2019-05-30T11:04:50.656Z,97135.08
2019-05-30T11:07:28.121Z,97132.66
2019-05-30T11:10:02.395Z,97132.34
2019-05-30T11:12:30.906Z,97130.38
2019-05-30T11:14:59.480Z,97129.06
2019-05-30T11:17:27.956Z,97118.58
2019-05-30T11:19:56.462Z,97116.13
2019-05-30T11:22:24.975Z,97113.39
2019-05-30T11:24:54.434Z,97117.53
2019-05-30T11:27:22.936Z,97122.42
2019-05-30T11:29:52.880Z,97114.48
2019-05-30T11:32:21.386Z,97112.66
2019-05-30T11:34:51.160Z,97105.75
2019-05-30T11:37:19.659Z,97111.23
2019-05-30T11:39:49.068Z,97108.05
2019-05-30T11:42:17.567Z,97112.09
2019-05-30T11:44:46.060Z,97109.33
2019-05-30T11:47:14.554Z,97101.06
2019-05-30T11:49:43.031Z,97105.89
2019-05-30T11:52:11.541Z,97105.49
2019-05-30T11:54:40.060Z,97110.22
2019-05-30T11:57:08.546Z,97111.97
2019-05-30T11:59:37.053Z,97104.58
2019-05-30T12:02:05.627Z,97104.60
2019-05-30T12:04:34.121Z,97112.33
2019-05-30T12:07:02.648Z,97106.31
2019-05-30T12:09:31.214Z,97107.69
2019-05-30T12:11:59.746Z,97111.27
2019-05-30T12:14:28.247Z,97097.58
2019-05-30T12:16:57.319Z,97101.16
2019-05-30T12:19:25.953Z,97094.03
2019-05-30T12:21:55.563Z,97090.78
2019-05-30T12:24:24.067Z,97095.70
2019-05-30T12:26:53.815Z,97088.56
2019-05-30T12:29:22.407Z,97096.25
2019-05-30T12:31:52.022Z,97092.41
2019-05-30T12:34:20.776Z,97088.83
2019-05-30T12:36:49.268Z,97097.06
2019-05-30T12:39:17.786Z,97103.34
2019-05-30T12:41:46.343Z,97094.84
2019-05-30T12:44:14.807Z,97088.55
2019-05-30T12:46:43.308Z,97084.73
2019-05-30T12:49:11.871Z,97092.92
2019-05-30T12:51:40.382Z,97089.27
2019-05-30T12:54:08.876Z,97090.39
2019-05-30T12:56:37.404Z,97086.79
2019-05-30T12:59:07.127Z,97074.73
2019-05-30T13:01:35.744Z,97076.08
2019-05-30T13:04:04.351Z,97076.08
2019-05-30T13:06:32.801Z,97075.02
2019-05-30T13:09:01.306Z,97075.02
2019-05-30T13:11:29.809Z,97070.61
2019-05-30T13:13:58.521Z,97072.75
2019-05-30T13:16:27.155Z,97054.66
2019-05-30T13:18:55.948Z,97064.42
2019-05-30T13:21:24.453Z,97064.59
2019-05-30T13:23:52.976Z,97063.55
2019-05-30T13:26:21.450Z,97066.91
2019-05-30T13:28:49.986Z,97059.70
2019-05-30T13:31:18.526Z,97064.80
2019-05-30T13:33:47.027Z,97057.15
2019-05-30T13:36:15.489Z,97064.02
2019-05-30T13:38:43.989Z,97053.67
2019-05-30T13:41:12.518Z,97045.09
2019-05-30T13:43:41.006Z,97054.80
2019-05-30T13:46:09.694Z,97042.98
2019-05-30T13:48:38.356Z,97050.64
2019-05-30T13:51:07.127Z,97050.89
2019-05-30T13:53:35.704Z,97046.92
2019-05-30T13:56:05.417Z,97049.67
2019-05-30T13:58:34.179Z,97049.78
2019-05-30T14:01:07.749Z,97052.82
2019-05-30T14:03:32.915Z,97050.14
2019-05-30T14:06:02.994Z,97041.88
2019-05-30T14:08:41.146Z,97055.14
2019-05-30T14:11:02.523Z,97046.44
2019-05-30T14:13:31.117Z,97039.88
2019-05-30T14:16:00.787Z,97050.14
2019-05-30T14:18:29.366Z,97038.57
2019-05-30T14:20:57.856Z,97039.16
2019-05-30T14:23:26.385Z,97041.91
2019-05-30T14:25:54.881Z,97038.61
2019-05-30T14:28:23.385Z,97040.05
2019-05-30T14:30:51.945Z,97044.16
2019-05-30T14:33:20.439Z,97040.77
2019-05-30T14:35:48.930Z,97045.13
2019-05-30T14:38:17.446Z,97048.42
2019-05-30T14:40:45.936Z,97047.19
2019-05-30T14:43:14.433Z,97042.63
2019-05-30T14:45:43.025Z,97043.97
2019-05-30T14:48:12.591Z,97047.54
2019-05-30T14:50:41.195Z,97044.77
2019-05-30T14:53:10.862Z,97053.02
2019-05-30T14:55:39.485Z,97051.92
2019-05-30T14:58:09.129Z,97044.73
2019-05-30T15:00:37.647Z,97047.72
2019-05-30T15:03:10.075Z,97058.19
2019-05-30T15:05:36.421Z,97054.73
2019-05-30T15:08:06.401Z,97054.73
2019-05-30T15:10:34.930Z,97051.50
2019-05-30T15:13:03.436Z,97057.48
2019-05-30T15:15:31.974Z,97056.26
2019-05-30T15:18:00.483Z,97041.13
2019-05-30T15:20:28.994Z,97048.60
2019-05-30T15:22:57.664Z,97046.53
2019-05-30T15:25:26.147Z,97051.13
2019-05-30T15:27:54.690Z,97043.32
2019-05-30T15:30:23.328Z,97041.97
2019-05-30T15:32:51.850Z,97047.66
2019-05-30T15:35:20.410Z,97041.86
2019-05-30T15:37:49.012Z,97046.30
2019-05-30T15:40:17.643Z,97048.08
2019-05-30T15:42:46.235Z,97046.14
2019-05-30T15:45:17.992Z,97038.89
2019-05-30T15:47:46.669Z,97043.29
2019-05-30T15:50:16.978Z,97043.08
2019-05-30T15:52:45.601Z,97045.98
2019-05-30T15:55:15.385Z,97051.23
2019-05-30T15:57:43.910Z,97049.51
2019-05-30T16:00:14.222Z,97044.28
2019-05-30T16:02:42.775Z,97048.84
2019-05-30T16:05:12.534Z,97048.50
2019-05-30T16:07:41.157Z,97045.19
2019-05-30T16:10:10.849Z,97045.25
2019-05-30T16:12:39.574Z,97051.04
2019-05-30T16:15:08.806Z,97057.00
2019-05-30T16:17:37.299Z,97053.52
2019-05-30T16:20:07.532Z,97062.87
2019-05-30T16:22:36.041Z,97063.36
2019-05-30T16:25:05.910Z,97068.15
2019-05-30T16:27:34.424Z,97065.47
2019-05-30T16:30:03.403Z,97072.13
2019-05-30T16:32:32.037Z,97066.17
2019-05-30T16:35:00.575Z,97076.75
2019-05-30T16:37:29.093Z,97069.42
2019-05-30T16:40:05.911Z,97071.14
2019-05-30T16:42:27.848Z,97070.31
2019-05-30T16:44:56.339Z,97068.42
2019-05-30T16:47:24.845Z,97068.17
2019-05-30T16:49:53.376Z,97071.77
2019-05-30T16:52:23.049Z,97077.83
2019-05-30T16:54:51.643Z,97076.47
2019-05-30T16:57:20.712Z,97070.72
2019-05-30T16:59:49.403Z,97064.13
2019-05-30T17:02:18.849Z,97064.13
2019-05-30T17:04:47.444Z,97070.70
2019-05-30T17:07:16.992Z,97066.35
2019-05-30T17:09:45.621Z,97079.51
2019-05-30T17:12:15.328Z,97068.55
2019-05-30T17:14:43.958Z,97068.55
2019-05-30T17:17:12.465Z,97076.77
2019-05-30T17:19:40.948Z,97075.14
2019-05-30T17:22:09.450Z,97074.56
2019-05-30T17:24:38.058Z,97078.70
2019-05-30T17:27:06.545Z,97077.85
2019-05-30T17:29:35.041Z,97077.85
2019-05-30T17:32:03.590Z,97081.95
2019-05-30T17:34:32.082Z,97084.70
2019-05-30T17:37:00.574Z,97089.08
2019-05-30T17:39:29.112Z,97088.79
2019-05-30T17:41:57.649Z,97087.70
2019-05-30T17:44:27.194Z,97087.42
2019-05-30T17:46:55.741Z,97095.07
2019-05-30T17:49:24.232Z,97095.07
2019-05-30T17:51:52.774Z,97100.02
2019-05-30T17:54:21.758Z,97097.28
2019-05-30T17:56:50.292Z,97099.48
2019-05-30T17:59:20.173Z,97099.48
2019-05-30T18:01:48.719Z,97106.31
2019-05-30T18:04:17.216Z,97103.30
2019-05-30T18:06:45.722Z,97105.21
2019-05-30T18:09:14.223Z,97104.67
2019-05-30T18:11:42.734Z,97106.81
2019-05-30T18:14:11.409Z,97098.26
2019-05-30T18:16:39.873Z,97113.82
2019-05-30T18:19:08.521Z,97104.72
2019-05-30T18:21:37.017Z,97113.22
2019-05-30T18:24:06.037Z,97111.03
2019-05-30T18:26:34.540Z,97113.37
2019-05-30T18:29:03.059Z,97110.86
2019-05-30T18:31:32.284Z,97103.09
2019-05-30T18:34:00.947Z,97107.44
2019-05-30T18:36:30.507Z,97112.20
2019-05-30T18:38:59.027Z,97112.09
2019-05-30T18:41:28.711Z,97120.71
2019-05-30T18:43:57.610Z,97118.36
2019-05-30T18:46:27.031Z,97124.47
2019-05-30T18:48:55.572Z,97129.83
2019-05-30T18:51:24.155Z,97130.82
2019-05-30T18:53:52.682Z,97124.92
2019-05-30T18:56:21.465Z,97125.95
2019-05-30T18:58:49.976Z,97132.24
2019-05-30T19:01:18.546Z,97134.06
2019-05-30T19:03:47.368Z,97132.66
2019-05-30T19:06:15.834Z,97134.33
2019-05-30T19:08:44.431Z,97136.86
2019-05-30T19:11:26.667Z,97139.92
2019-05-30T19:13:43.203Z,97148.55
2019-05-30T19:16:11.715Z,97154.97
2019-05-30T19:18:40.280Z,97158.34
2019-05-30T19:21:08.871Z,97158.20
2019-05-30T19:23:39.649Z,97157.20
2019-05-30T19:26:07.647Z,97164.62
2019-05-30T19:28:36.694Z,97167.93
2019-05-30T19:31:05.284Z,97166.81
2019-05-30T19:33:34.862Z,97170.41
2019-05-30T19:36:03.602Z,97174.39
2019-05-30T19:38:33.255Z,97179.59
2019-05-30T19:41:01.803Z,97179.53
2019-05-30T19:43:31.642Z,97185.92
2019-05-30T19:46:00.244Z,97191.55
2019-05-30T19:48:28.772Z,97191.02
2019-05-30T19:50:57.280Z,97203.28
2019-05-30T19:53:25.782Z,97213.56
2019-05-30T19:55:54.273Z,97205.79
2019-05-30T19:58:22.766Z,97215.51
2019-05-30T20:00:58.644Z,97213.29
2019-05-30T20:03:35.707Z,97220.52
2019-05-30T20:05:51.712Z,97220.96
2019-05-30T20:08:20.253Z,97217.94
2019-05-30T20:10:48.818Z,97218.80
2019-05-30T20:13:17.444Z,97218.03
2019-05-30T20:15:45.944Z,97224.14
2019-05-30T20:18:14.486Z,97224.75
2019-05-30T20:20:54.054Z,97220.75
2019-05-30T20:23:13.409Z,97228.91
2019-05-30T20:25:45.584Z,97227.92
2019-05-30T20:28:12.229Z,97231.84
2019-05-30T20:30:41.168Z,97229.71
2019-05-30T20:33:09.833Z,97225.88
2019-05-30T20:35:39.778Z,97239.84
2019-05-30T20:38:08.629Z,97244.45
2019-05-30T20:40:37.133Z,97237.00
2019-05-30T20:43:05.684Z,97238.63
2019-05-30T20:45:38.432Z,97242.03
2019-05-30T20:48:04.499Z,97245.66
2019-05-30T20:50:32.992Z,97241.80
2019-05-30T20:53:01.503Z,97243.99
2019-05-30T20:55:30.002Z,97239.73
2019-05-30T20:57:58.517Z,97250.98
2019-05-30T21:00:38.249Z,97251.80
2019-05-30T21:03:07.091Z,97247.50
2019-05-30T21:05:37.612Z,97250.70
2019-05-30T21:08:06.852Z,97251.08
2019-05-30T21:10:36.938Z,97255.11
2019-05-30T21:13:05.866Z,97260.98
2019-05-30T21:15:37.432Z,97261.34
2019-05-30T21:18:06.299Z,97260.98
2019-05-30T21:20:35.826Z,97262.58
2019-05-30T21:23:04.507Z,97269.47
2019-05-30T21:25:35.750Z,97265.94
2019-05-30T21:28:03.255Z,97270.23
2019-05-30T21:30:31.865Z,97267.95
2019-05-30T21:33:00.363Z,97268.45
2019-05-30T21:35:28.862Z,97277.44
2019-05-30T21:37:57.318Z,97265.23
2019-05-30T21:40:25.921Z,97272.93
2019-05-30T21:43:05.438Z,97277.70
2019-05-30T21:45:24.807Z,97280.87
2019-05-30T21:47:53.349Z,97279.66
2019-05-30T21:50:21.809Z,97275.53
2019-05-30T21:52:50.355Z,97278.55
2019-05-30T21:55:18.997Z,97273.57
2019-05-30T21:57:48.160Z,97270.25
2019-05-30T22:00:20.950Z,97262.05
2019-05-30T22:02:54.407Z,97262.72
2019-05-30T22:05:23.430Z,97255.41
2019-05-30T22:07:51.948Z,97261.81
2019-05-30T22:10:20.534Z,97255.64
2019-05-30T22:12:49.722Z,97255.95
2019-05-30T22:15:18.437Z,97254.52
2019-05-30T22:17:47.889Z,97263.95
2019-05-30T22:20:16.488Z,97263.66
2019-05-30T22:22:46.034Z,97261.69
2019-05-30T22:25:14.816Z,97262.16
2019-05-30T22:27:44.517Z,97271.56
2019-05-30T22:30:13.344Z,97271.95
2019-05-30T22:32:42.602Z,97276.16
2019-05-30T22:35:11.247Z,97273.01
2019-05-30T22:37:39.741Z,97277.74
2019-05-30T22:40:08.476Z,97279.63
2019-05-30T22:42:37.000Z,97276.16
2019-05-30T22:45:08.881Z,97279.91
2019-05-30T22:47:37.483Z,97284.72
2019-05-30T22:50:07.165Z,97284.08
2019-05-30T22:52:35.657Z,97281.64
2019-05-30T22:55:04.831Z,97278.83
2019-05-30T22:57:33.332Z,97279.45
2019-05-30T23:00:01.834Z,97284.16
2019-05-30T23:02:30.344Z,97281.30
2019-05-30T23:04:58.856Z,97287.41
2019-05-30T23:07:27.450Z,97284.44
2019-05-30T23:09:56.017Z,97292.33
2019-05-30T23:12:24.469Z,97283.83
2019-05-30T23:14:54.204Z,97291.24
2019-05-30T23:17:22.841Z,97289.09
2019-05-30T23:19:52.052Z,97291.71
2019-05-30T23:22:21.697Z,97284.08
2019-05-30T23:24:52.197Z,97283.15
2019-05-30T23:27:20.504Z,97283.52
2019-05-30T23:29:49.739Z,97283.39
2019-05-30T23:32:18.286Z,97286.93
2019-05-30T23:34:48.126Z,97284.37
2019-05-30T23:37:16.675Z,97284.06
2019-05-30T23:39:45.207Z,97279.95
2019-05-30T23:42:13.724Z,97273.14
2019-05-30T23:44:42.220Z,97268.67
2019-05-30T23:47:10.769Z,97271.48
2019-05-30T23:49:39.283Z,97266.74
2019-05-30T23:52:07.851Z,97260.06
2019-05-30T23:54:36.343Z,97262.62
2019-05-30T23:57:04.905Z,97263.35
2019-05-30T23:59:33.413Z,97257.78
